الصفحة الرئيسية
METAR-TAF:

METAR-TAF

مطار :

مطار جناح الدولي

كراتشي, باكستان

دائرة عرض: 24-54N, خط طول: 067-08E, ارتفاع: 21 متر

مراقبة الطقس الحالي

تاريخ ووقت الإصدار 57 دقيقة قبل الساعة 02:55UTC
ريح 5 عقدة من الشرق/الشمال الشرقي
درجة الحرارة 15°درجة مئوية
الرطوبة 77%
ضغط 1020 hPa
الرؤية: 4000 متر
دخان

METAR: OPKC 220255Z 06005KT 4000 FU NSC 15/11 Q1020 NOSIG

زمن: 08:52 (03:52 UTC)

توقعات

تاريخ ووقت الإصدار 6ساعات و 22 دقيقة قبل الساعة 21:30UTC
التوقعات صالحة من22 الساعة 00 UTC إلى 23 الساعة 06 UTC
ريح 10 عقدة من الشمال الشرقي
الرؤية: 7000 متر
مؤقت
من 22 الساعة 00 UTC إلى 22 الساعة 04 UTC
ريح 7 عقدة من الشمال/الشمال الشرقي
الرؤية: 3000 متر
دخان
من 22 الساعة 1000 UTC
ريح 7 عقدة من الغرب
الرؤية: 6000 متر
غيوم قليلة على ارتفاع 3000 قدم
غيوم متفرقة على ارتفاع 10000 قدم
مؤقت
من 23 الساعة 00 UTC إلى 23 الساعة 06 UTC
ريح 12 عقدة من الشرق/الشمال الشرقي
الرؤية: 4000 متر
العجاج

TAF: OPKC 212130Z 2200/2306 04010KT 7000 NSC TEMPO 2200/2204 02007KT 3000 FU NSC FM221000 28007KT 6000 FEW030 SCT100 TEMPO 2300/2306 06012KT 4000 HZ NSC

أرصاد الطقس والتوقعات من أكثر من 4000 مطار (تقارير الطقس للمطار METAR والتنبؤ بالطقس بالمطارTAF).

المحطات المتاحة هي النقط الصفراء والحمراء على الخريطة.

حرك المؤشر فوق النقطة لمعرفة اسم المحطة.

ثم انقر لمعرفة أرصاد وتوقعات الطقس.

لتغيير الخارطة: اضغط على الأزرار الخضراء مع رمز الصليب الأسود للتكبير. على الزر الأخضر مع شرطة للتصغير، أو على الأسهم الخضراء للخرائط المجاورة.


METAR-TAF: